Terminal Aerodrome Forecast
Issued by NWS Cleveland, OH

Home | Current Version | Previous Version | Graphics & Text | Print | Product List | Glossary Off
Versions: 1 2 3 4 5 6 7 8 9 10 11 12 13 14 15 16 17 18 19

000
FTUS41 KCLE 051200 AAA
TAFYNG
TAF AMD
KYNG 051220Z 0512/0612 22005KT 2SM -RA BR SCT030 OVC060
      TEMPO 0512/0516 3/4SM -SHRA BR BKN030 OVC060
     FM051700 20006KT P6SM SCT035 OVC100
     FM052100 VRB04KT P6SM VCSH BKN035 OVC100
     FM060800 VRB03KT 4SM BR SCT040 BKN200=

USA.gov is the U.S. government's official web portal to all federal, state and local government web resources and services.